Terminal Aerodrome Forecast
Issued by NWS Duluth, MN

Home | Current Version | Previous Version | Text Only | Print | Product List | Glossary On
Versions: 1 2 3 4 5 6 7 8 9 10 11 12 13 14 15 16 17
000
FTUS43 KDLH 301700
TAFDLH
TAF
KDLH 301727Z 3018/0118 12009KT P6SM FEW200
     FM010500 14004KT P6SM SCT200
     FM011000 23008KT P6SM SCT080=

USA.gov is the U.S. government's official web portal to all federal, state and local government web resources and services.